createdAt,value
2023-05-03T00:00:05.398Z,78
2023-05-03T00:01:00.704Z,78
2023-05-03T00:02:00.835Z,78
2023-05-03T00:06:00.842Z,78
2023-05-03T00:07:00.735Z,78
2023-05-03T00:08:00.832Z,78
2023-05-03T00:09:00.757Z,78
2023-05-03T00:10:03.944Z,78
2023-05-03T00:11:00.791Z,78
2023-05-03T00:12:00.851Z,78
2023-05-03T00:13:00.800Z,78
2023-05-03T00:14:00.864Z,78
2023-05-03T00:15:03.810Z,78
2023-05-03T00:16:00.935Z,78
2023-05-03T00:17:00.832Z,78
2023-05-03T00:18:00.934Z,78
2023-05-03T00:19:00.822Z,78
2023-05-03T00:20:04.452Z,78
2023-05-03T00:21:00.851Z,78
2023-05-03T00:22:01.092Z,78
2023-05-03T00:23:00.851Z,78
2023-05-03T00:24:00.958Z,78
2023-05-03T00:25:03.310Z,78
2023-05-03T00:26:00.939Z,78
2023-05-03T00:27:00.893Z,78
2023-05-03T00:28:00.968Z,78
2023-05-03T00:29:00.893Z,78
2023-05-03T00:30:04.124Z,78
2023-05-03T00:31:00.904Z,78
2023-05-03T00:32:00.965Z,78
2023-05-03T00:33:01.011Z,78
2023-05-03T00:34:01.001Z,78
2023-05-03T00:35:03.283Z,78
2023-05-03T00:36:01.002Z,78
2023-05-03T00:37:00.948Z,78
2023-05-03T00:38:01.003Z,78
2023-05-03T00:39:00.949Z,78
2023-05-03T00:40:04.094Z,78
2023-05-03T00:41:00.954Z,78
2023-05-03T00:42:01.039Z,78
2023-05-03T00:43:00.970Z,78
2023-05-03T00:44:01.046Z,78
2023-05-03T00:45:04.590Z,78
2023-05-03T00:46:12.379Z,78
2023-05-03T00:47:01.052Z,78
2023-05-03T00:48:01.118Z,78
2023-05-03T00:52:01.091Z,78
2023-05-03T00:53:01.032Z,78
2023-05-03T00:54:01.114Z,78
2023-05-03T00:55:03.637Z,78
2023-05-03T00:56:01.152Z,78
2023-05-03T00:57:01.066Z,78
2023-05-03T00:58:01.111Z,78
2023-05-03T00:59:01.065Z,78
2023-05-03T01:00:04.929Z,78
2023-05-03T01:01:01.084Z,78
2023-05-03T01:02:01.200Z,78
2023-05-03T01:03:01.187Z,78
2023-05-03T01:04:01.304Z,78
2023-05-03T01:05:03.619Z,78
2023-05-03T01:06:01.272Z,78
2023-05-03T01:07:01.127Z,78
2023-05-03T01:08:01.217Z,78
2023-05-03T01:09:01.139Z,78
2023-05-03T01:10:04.437Z,78
2023-05-03T01:11:01.166Z,78
2023-05-03T01:12:01.247Z,78
2023-05-03T01:13:01.174Z,78
2023-05-03T01:14:01.254Z,78
2023-05-03T01:15:03.662Z,78
2023-05-03T01:16:01.301Z,78
2023-05-03T01:17:00.187Z,79
2023-05-03T01:18:00.294Z,79
2023-05-03T01:19:00.199Z,79
2023-05-03T01:20:05.124Z,79
2023-05-03T01:21:00.207Z,79
2023-05-03T01:22:00.285Z,79
2023-05-03T01:23:00.224Z,79
2023-05-03T01:24:00.304Z,79
2023-05-03T01:25:02.571Z,79
2023-05-03T01:26:00.328Z,79
2023-05-03T01:27:00.250Z,79
2023-05-03T01:28:00.668Z,79
2023-05-03T01:29:00.267Z,79
2023-05-03T01:30:03.699Z,79
2023-05-03T01:31:00.250Z,79
2023-05-03T01:32:00.426Z,79
2023-05-03T01:33:00.322Z,79
2023-05-03T01:34:00.678Z,79
2023-05-03T01:35:02.674Z,78
2023-05-03T01:36:00.364Z,78
2023-05-03T01:37:00.291Z,78
2023-05-03T01:38:00.416Z,78
2023-05-03T01:39:00.329Z,78
2023-05-03T01:40:04.185Z,78
2023-05-03T01:41:00.334Z,78
2023-05-03T01:42:00.414Z,78
2023-05-03T01:43:00.360Z,78
2023-05-03T01:44:00.441Z,78
2023-05-03T01:45:02.968Z,78
2023-05-03T01:46:00.451Z,78
2023-05-03T01:47:00.360Z,78
2023-05-03T01:48:00.762Z,78
2023-05-03T01:49:00.366Z,78
2023-05-03T01:50:03.720Z,79
2023-05-03T01:51:00.508Z,79
2023-05-03T01:52:00.462Z,79
2023-05-03T01:53:00.400Z,79
2023-05-03T01:54:00.491Z,79
2023-05-03T01:55:02.992Z,79
2023-05-03T01:56:00.546Z,79
2023-05-03T01:57:00.424Z,79
2023-05-03T01:58:00.512Z,79
2023-05-03T01:59:00.455Z,79
2023-05-03T02:00:03.937Z,79
2023-05-03T02:01:00.567Z,79
2023-05-03T02:02:00.692Z,79
2023-05-03T02:03:00.541Z,79
2023-05-03T02:04:00.659Z,79
2023-05-03T02:05:02.997Z,79
2023-05-03T02:06:00.700Z,79
2023-05-03T02:07:00.511Z,79
2023-05-03T02:08:00.610Z,79
2023-05-03T02:09:00.528Z,79
2023-05-03T02:10:03.791Z,79
2023-05-03T02:11:00.530Z,79
2023-05-03T02:12:00.629Z,79
2023-05-03T02:13:00.574Z,79
2023-05-03T02:14:00.691Z,79
2023-05-03T02:15:02.945Z,79
2023-05-03T02:16:00.640Z,79
2023-05-03T02:17:00.812Z,79
2023-05-03T02:18:00.720Z,79
2023-05-03T02:19:00.573Z,79
2023-05-03T02:20:04.067Z,79
2023-05-03T02:21:00.604Z,79
2023-05-03T02:22:00.651Z,79
2023-05-03T02:23:00.583Z,79
2023-05-03T02:24:00.679Z,79
2023-05-03T02:25:03.078Z,80
2023-05-03T02:26:00.700Z,80
2023-05-03T02:27:00.640Z,80
2023-05-03T02:28:00.685Z,80
2023-05-03T02:29:00.627Z,80
2023-05-03T02:30:04.051Z,80
2023-05-03T02:31:00.720Z,80
2023-05-03T02:32:00.740Z,80
2023-05-03T02:33:00.736Z,80
2023-05-03T02:34:00.729Z,80
2023-05-03T02:35:04.022Z,80
2023-05-03T02:36:00.754Z,80
2023-05-03T02:37:00.680Z,80
2023-05-03T02:38:00.770Z,80
2023-05-03T02:39:00.702Z,80
2023-05-03T02:40:04.107Z,80
2023-05-03T02:41:00.724Z,80
2023-05-03T02:42:00.820Z,80
2023-05-03T02:43:00.728Z,80
2023-05-03T02:44:00.833Z,80
2023-05-03T02:45:03.412Z,81
2023-05-03T02:46:00.899Z,81
2023-05-03T02:47:00.761Z,81
2023-05-03T02:48:00.844Z,81
2023-05-03T02:49:00.768Z,81
2023-05-03T02:50:04.016Z,81
2023-05-03T02:51:00.808Z,81
2023-05-03T02:52:00.875Z,81
2023-05-03T02:53:00.794Z,81
2023-05-03T02:54:00.891Z,81
2023-05-03T02:55:03.407Z,81
2023-05-03T02:56:00.915Z,81
2023-05-03T02:57:00.834Z,81
2023-05-03T02:58:00.906Z,81
2023-05-03T02:59:00.849Z,81
2023-05-03T03:00:04.537Z,81
2023-05-03T03:01:00.862Z,81
2023-05-03T03:02:01.024Z,81
2023-05-03T03:03:00.954Z,81
2023-05-03T03:04:01.048Z,81
2023-05-03T03:05:03.210Z,81
2023-05-03T03:06:01.060Z,81
2023-05-03T03:07:00.892Z,81
2023-05-03T03:08:01.008Z,81
2023-05-03T03:09:00.939Z,81
2023-05-03T03:10:04.624Z,81
2023-05-03T03:11:00.912Z,81
2023-05-03T03:12:01.007Z,81
2023-05-03T03:13:00.913Z,81
2023-05-03T03:14:01.040Z,81
2023-05-03T03:15:03.471Z,81
2023-05-03T03:16:01.057Z,82
2023-05-03T03:17:00.941Z,82
2023-05-03T03:18:01.188Z,82
2023-05-03T03:19:00.956Z,82
2023-05-03T03:20:04.132Z,82
2023-05-03T03:21:00.981Z,82
2023-05-03T03:22:01.120Z,82
2023-05-03T03:23:01.011Z,82
2023-05-03T03:24:01.112Z,82
2023-05-03T03:25:03.458Z,82
2023-05-03T03:26:01.098Z,82
2023-05-03T03:27:01.047Z,82
2023-05-03T03:28:01.109Z,82
2023-05-03T03:29:01.038Z,82
2023-05-03T03:30:06.454Z,82
2023-05-03T03:31:01.053Z,82
2023-05-03T03:32:01.319Z,82
2023-05-03T03:33:01.134Z,82
2023-05-03T03:34:01.148Z,82
2023-05-03T03:35:03.542Z,82
2023-05-03T03:36:01.176Z,82
2023-05-03T03:37:01.109Z,82
2023-05-03T03:38:01.229Z,82
2023-05-03T03:39:01.115Z,82
2023-05-03T03:40:04.679Z,82
2023-05-03T03:41:01.120Z,82
2023-05-03T03:42:01.229Z,82
2023-05-03T03:43:01.173Z,82
2023-05-03T03:44:01.248Z,82
2023-05-03T03:45:03.788Z,82
2023-05-03T03:46:01.214Z,82
2023-05-03T03:47:01.160Z,82
2023-05-03T03:48:08.469Z,82
2023-05-03T03:49:01.169Z,82
2023-05-03T03:50:04.795Z,82
2023-05-03T03:51:01.191Z,82
2023-05-03T03:52:01.231Z,82
2023-05-03T03:53:01.178Z,82
2023-05-03T03:54:01.250Z,82
2023-05-03T03:55:03.811Z,82
2023-05-03T03:56:01.280Z,83
2023-05-03T03:57:01.212Z,83
2023-05-03T03:58:01.261Z,83
2023-05-03T03:59:01.188Z,83
2023-05-03T04:00:05.451Z,83
2023-05-03T04:01:00.198Z,83
2023-05-03T04:02:00.386Z,83
2023-05-03T04:03:00.386Z,83
2023-05-03T04:04:00.800Z,83
2023-05-03T04:05:02.612Z,83
2023-05-03T04:06:00.328Z,83
2023-05-03T04:07:00.230Z,83
2023-05-03T04:08:00.314Z,83
2023-05-03T04:09:00.243Z,83
2023-05-03T04:10:05.345Z,83
2023-05-03T04:11:00.260Z,83
2023-05-03T04:12:00.364Z,83
2023-05-03T04:13:00.260Z,83
2023-05-03T04:14:00.353Z,83
2023-05-03T04:15:02.877Z,83
2023-05-03T04:16:02.152Z,83
2023-05-03T04:17:00.320Z,83
2023-05-03T04:18:00.435Z,83
2023-05-03T04:19:00.312Z,83
2023-05-03T04:20:04.073Z,83
2023-05-03T04:21:00.323Z,83
2023-05-03T04:22:00.414Z,83
2023-05-03T04:23:00.340Z,83
2023-05-03T04:24:00.695Z,83
2023-05-03T04:25:03.665Z,83
2023-05-03T04:26:02.354Z,83
2023-05-03T04:27:00.381Z,83
2023-05-03T04:28:00.437Z,83
2023-05-03T04:29:00.372Z,83
2023-05-03T04:30:04.581Z,83
2023-05-03T04:31:00.513Z,83
2023-05-03T04:32:00.498Z,83
2023-05-03T04:33:00.456Z,83
2023-05-03T04:34:00.675Z,83
2023-05-03T04:35:02.767Z,83
2023-05-03T04:36:00.505Z,83
2023-05-03T04:37:00.427Z,83
2023-05-03T04:38:00.552Z,83
2023-05-03T04:39:00.444Z,83
2023-05-03T04:40:03.638Z,83
2023-05-03T04:41:00.437Z,83
2023-05-03T04:42:00.522Z,83
2023-05-03T04:43:00.470Z,83
2023-05-03T04:44:00.550Z,83
2023-05-03T04:45:02.916Z,83
2023-05-03T04:46:00.581Z,83
2023-05-03T04:47:00.477Z,83
2023-05-03T04:48:00.693Z,83
2023-05-03T04:49:00.488Z,83
2023-05-03T04:50:05.229Z,83
2023-05-03T04:51:00.522Z,83
2023-05-03T04:52:00.697Z,82
2023-05-03T04:53:00.494Z,82
2023-05-03T04:54:00.602Z,82
2023-05-03T04:55:02.948Z,82
2023-05-03T04:56:00.734Z,82
2023-05-03T04:57:00.577Z,82
2023-05-03T04:58:00.600Z,82
2023-05-03T04:59:00.556Z,82
2023-05-03T05:00:04.210Z,82
2023-05-03T05:01:00.588Z,82
2023-05-03T05:02:00.932Z,82
2023-05-03T05:03:00.676Z,82
2023-05-03T05:04:01.018Z,82
2023-05-03T05:05:03.085Z,82
2023-05-03T05:06:00.697Z,82
2023-05-03T05:07:00.605Z,82
2023-05-03T05:08:00.699Z,82
2023-05-03T05:09:00.635Z,82
2023-05-03T05:10:03.861Z,82
2023-05-03T05:11:00.635Z,82
2023-05-03T05:12:00.700Z,82
2023-05-03T05:13:00.641Z,82
2023-05-03T05:14:00.742Z,82
2023-05-03T05:17:00.731Z,82
2023-05-03T05:18:00.843Z,82
2023-05-03T05:19:00.674Z,82
2023-05-03T05:20:06.015Z,82
2023-05-03T05:21:00.686Z,82
2023-05-03T05:22:00.755Z,82
2023-05-03T05:23:00.696Z,82
2023-05-03T05:24:00.796Z,82
2023-05-03T05:25:03.099Z,81
2023-05-03T05:26:00.902Z,81
2023-05-03T05:27:00.731Z,81
2023-05-03T05:28:00.788Z,81
2023-05-03T05:29:00.761Z,81
2023-05-03T05:30:04.119Z,81
2023-05-03T05:31:00.740Z,81
2023-05-03T05:32:00.871Z,81
2023-05-03T05:33:00.830Z,81
2023-05-03T05:34:00.802Z,81
2023-05-03T05:35:03.476Z,80
2023-05-03T05:36:00.834Z,80
2023-05-03T05:37:00.759Z,80
2023-05-03T05:38:00.831Z,80
2023-05-03T05:39:00.775Z,80
2023-05-03T05:40:04.249Z,80
2023-05-03T05:41:00.767Z,80
2023-05-03T05:42:00.893Z,80
2023-05-03T05:43:00.771Z,80
2023-05-03T05:44:00.858Z,80
2023-05-03T05:45:03.145Z,79
2023-05-03T05:46:00.860Z,79
2023-05-03T05:47:00.835Z,79
2023-05-03T05:48:00.889Z,79
2023-05-03T05:49:00.817Z,79
2023-05-03T05:50:09.707Z,79
2023-05-03T05:51:00.827Z,79
2023-05-03T05:52:00.874Z,78
2023-05-03T05:53:00.805Z,78
2023-05-03T05:54:00.921Z,78
2023-05-03T05:55:03.239Z,78
2023-05-03T05:56:00.922Z,78
2023-05-03T05:57:00.867Z,78
2023-05-03T05:58:00.957Z,78
2023-05-03T05:59:00.848Z,78
2023-05-03T06:00:04.186Z,77
2023-05-03T06:01:00.879Z,77
2023-05-03T06:02:00.982Z,77
2023-05-03T06:03:00.966Z,76
2023-05-03T06:04:00.972Z,76
2023-05-03T06:05:04.435Z,76
2023-05-03T06:06:01.167Z,76
2023-05-03T06:07:00.910Z,76
2023-05-03T06:08:01.019Z,75
2023-05-03T06:09:02.918Z,75
2023-05-03T06:10:04.379Z,73
2023-05-03T06:11:00.950Z,73
2023-05-03T06:12:01.044Z,72
2023-05-03T06:13:00.958Z,72
2023-05-03T06:14:01.086Z,72
2023-05-03T06:15:04.444Z,71
2023-05-03T06:16:01.057Z,71
2023-05-03T06:17:01.010Z,71
2023-05-03T06:18:01.131Z,69
2023-05-03T06:19:01.006Z,69
2023-05-03T06:20:04.175Z,68
2023-05-03T06:21:01.030Z,68
2023-05-03T06:22:01.150Z,68
2023-05-03T06:23:01.034Z,68
2023-05-03T06:24:01.120Z,68
2023-05-03T06:25:04.287Z,66
2023-05-03T06:26:01.114Z,66
2023-05-03T06:27:01.066Z,66
2023-05-03T06:28:01.124Z,66
2023-05-03T06:29:01.135Z,66
2023-05-03T06:30:04.437Z,66
2023-05-03T06:31:01.122Z,65
2023-05-03T06:32:01.148Z,65
2023-05-03T06:33:01.112Z,65
2023-05-03T06:34:01.187Z,65
2023-05-03T06:35:03.634Z,64
2023-05-03T06:36:01.193Z,64
2023-05-03T06:37:01.092Z,64
2023-05-03T06:38:01.176Z,63
2023-05-03T06:39:01.132Z,63
2023-05-03T06:40:04.334Z,63
2023-05-03T06:41:01.141Z,63
2023-05-03T06:42:01.270Z,63
2023-05-03T06:43:01.150Z,63
2023-05-03T06:44:01.222Z,63
2023-05-03T06:45:03.629Z,62
2023-05-03T06:46:01.334Z,62
2023-05-03T06:47:01.326Z,62
2023-05-03T06:48:01.336Z,62
2023-05-03T06:49:00.237Z,62
2023-05-03T06:50:03.530Z,62
2023-05-03T06:51:00.225Z,61
2023-05-03T06:52:00.712Z,61
2023-05-03T06:53:00.216Z,61
2023-05-03T06:54:00.315Z,61
2023-05-03T06:55:02.702Z,61
2023-05-03T06:56:00.679Z,61
2023-05-03T06:57:00.245Z,61
2023-05-03T06:58:00.296Z,61
2023-05-03T06:59:00.240Z,61
2023-05-03T07:00:03.642Z,61
2023-05-03T07:04:00.779Z,60
2023-05-03T07:05:02.768Z,60
2023-05-03T07:06:00.380Z,60
2023-05-03T07:07:00.331Z,60
2023-05-03T07:08:00.374Z,60
2023-05-03T07:09:00.332Z,60
2023-05-03T07:10:04.208Z,60
2023-05-03T07:11:00.347Z,59
2023-05-03T07:12:00.425Z,59
2023-05-03T07:13:00.346Z,59
2023-05-03T07:14:00.425Z,59
2023-05-03T07:15:03.017Z,59
2023-05-03T07:16:03.409Z,59
2023-05-03T07:17:00.386Z,59
2023-05-03T07:18:00.828Z,59
2023-05-03T07:19:00.388Z,59
2023-05-03T07:20:03.702Z,59
2023-05-03T07:21:00.452Z,58
2023-05-03T07:22:00.731Z,58
2023-05-03T07:23:00.422Z,58
2023-05-03T07:24:00.509Z,57
2023-05-03T07:25:02.913Z,57
2023-05-03T07:26:00.715Z,57
2023-05-03T07:27:00.451Z,57
2023-05-03T07:28:00.610Z,56
2023-05-03T07:29:00.446Z,56
2023-05-03T07:30:03.786Z,56
2023-05-03T07:31:00.464Z,57
2023-05-03T07:32:00.538Z,57
2023-05-03T07:33:00.563Z,57
2023-05-03T07:34:00.781Z,56
2023-05-03T07:35:02.943Z,56
2023-05-03T07:36:00.556Z,55
2023-05-03T07:37:00.482Z,55
2023-05-03T07:38:00.552Z,55
2023-05-03T07:39:00.534Z,55
2023-05-03T07:40:03.703Z,55
2023-05-03T07:41:00.501Z,55
2023-05-03T07:42:00.593Z,55
2023-05-03T07:43:00.511Z,55
2023-05-03T07:44:00.599Z,55
2023-05-03T07:45:03.051Z,55
2023-05-03T07:46:00.826Z,55
2023-05-03T07:47:00.521Z,55
2023-05-03T07:48:00.656Z,54
2023-05-03T07:49:00.545Z,54
2023-05-03T07:50:04.012Z,54
2023-05-03T07:51:00.571Z,53
2023-05-03T07:52:00.667Z,53
2023-05-03T07:53:00.569Z,53
2023-05-03T07:54:00.664Z,54
2023-05-03T07:55:02.961Z,54
2023-05-03T07:56:00.737Z,54
2023-05-03T07:57:00.624Z,53
2023-05-03T07:58:00.706Z,53
2023-05-03T07:59:09.563Z,53
2023-05-03T08:00:04.356Z,53
2023-05-03T08:01:00.640Z,52
2023-05-03T08:02:01.743Z,52
2023-05-03T08:03:00.831Z,52
2023-05-03T08:04:01.147Z,53
2023-05-03T08:05:04.785Z,53
2023-05-03T08:06:00.744Z,53
2023-05-03T08:07:00.661Z,51
2023-05-03T08:08:00.727Z,51
2023-05-03T08:09:00.678Z,51
2023-05-03T08:10:03.722Z,51
2023-05-03T08:11:00.717Z,50
2023-05-03T08:12:00.749Z,50
2023-05-03T08:13:00.682Z,50
2023-05-03T08:14:00.769Z,50
2023-05-03T08:15:03.480Z,50
2023-05-03T08:16:00.819Z,50
2023-05-03T08:17:00.713Z,50
2023-05-03T08:18:00.835Z,50
2023-05-03T08:19:00.719Z,50
2023-05-03T08:20:03.639Z,50
2023-05-03T08:21:00.783Z,50
2023-05-03T08:22:00.826Z,50
2023-05-03T08:23:00.758Z,50
2023-05-03T08:24:00.846Z,50
2023-05-03T08:25:03.355Z,50
2023-05-03T08:26:00.858Z,50
2023-05-03T08:27:00.806Z,50
2023-05-03T08:28:00.893Z,50
2023-05-03T08:29:00.783Z,50
2023-05-03T08:30:03.914Z,50
2023-05-03T08:31:00.847Z,50
2023-05-03T08:32:00.906Z,50
2023-05-03T08:33:00.909Z,50
2023-05-03T08:34:00.897Z,50
2023-05-03T08:35:04.961Z,50
2023-05-03T08:36:00.914Z,50
2023-05-03T08:37:00.857Z,49
2023-05-03T08:38:00.909Z,49
2023-05-03T08:39:00.886Z,49
2023-05-03T08:40:04.230Z,50
2023-05-03T08:41:00.855Z,50
2023-05-03T08:42:00.968Z,49
2023-05-03T08:43:00.888Z,49
2023-05-03T08:44:00.988Z,49
2023-05-03T08:45:03.333Z,50
2023-05-03T08:46:01.002Z,50
2023-05-03T08:47:00.984Z,49
2023-05-03T08:48:01.014Z,49
2023-05-03T08:49:00.898Z,49
2023-05-03T08:50:04.032Z,49
2023-05-03T08:51:00.933Z,49
2023-05-03T08:52:01.192Z,49
2023-05-03T08:53:00.933Z,49
2023-05-03T08:54:01.004Z,49
2023-05-03T08:55:03.592Z,49
2023-05-03T08:56:01.014Z,49
2023-05-03T08:57:00.964Z,49
2023-05-03T08:58:01.032Z,49
2023-05-03T08:59:00.955Z,48
2023-05-03T09:00:06.430Z,48
2023-05-03T09:01:00.981Z,48
2023-05-03T09:02:09.057Z,48
2023-05-03T09:03:01.202Z,48
2023-05-03T09:04:02.629Z,48
2023-05-03T09:05:03.862Z,49
2023-05-03T09:06:01.581Z,49
2023-05-03T09:07:01.023Z,48
2023-05-03T09:08:01.698Z,48
2023-05-03T09:09:01.072Z,48
2023-05-03T09:10:04.692Z,47
2023-05-03T09:11:01.045Z,47
2023-05-03T09:12:01.139Z,47
2023-05-03T09:13:01.058Z,48
2023-05-03T09:14:08.388Z,48
2023-05-03T09:15:03.585Z,48
2023-05-03T09:16:01.193Z,48
2023-05-03T09:17:01.148Z,48
2023-05-03T09:18:01.174Z,47
2023-05-03T09:19:01.091Z,47
2023-05-03T09:20:04.820Z,47
2023-05-03T09:21:01.116Z,47
2023-05-03T09:22:01.200Z,47
2023-05-03T09:23:01.113Z,48
2023-05-03T09:24:01.219Z,48
2023-05-03T09:25:04.270Z,47
2023-05-03T09:26:01.205Z,47
2023-05-03T09:27:01.152Z,47
2023-05-03T09:28:01.229Z,47
2023-05-03T09:29:01.141Z,47
2023-05-03T09:30:05.922Z,47
2023-05-03T09:31:01.174Z,47
2023-05-03T09:32:01.367Z,47
2023-05-03T09:33:01.244Z,46
2023-05-03T09:34:01.280Z,46
2023-05-03T09:35:02.857Z,46
2023-05-03T09:36:00.308Z,46
2023-05-03T09:37:00.215Z,46
2023-05-03T09:38:00.267Z,46
2023-05-03T09:39:00.211Z,46
2023-05-03T09:40:03.507Z,46
2023-05-03T09:41:00.241Z,45
2023-05-03T09:42:00.346Z,45
2023-05-03T09:43:00.262Z,46
2023-05-03T09:44:00.324Z,46
2023-05-03T09:45:02.747Z,46
2023-05-03T09:46:00.381Z,45
2023-05-03T09:47:00.267Z,45
2023-05-03T09:48:00.741Z,46
2023-05-03T09:49:00.288Z,46
2023-05-03T09:50:03.741Z,46
2023-05-03T09:51:00.304Z,44
2023-05-03T09:52:00.377Z,44
2023-05-03T09:53:00.308Z,44
2023-05-03T09:54:00.404Z,44
2023-05-03T09:55:04.345Z,44
2023-05-03T09:56:00.609Z,43
2023-05-03T09:57:00.353Z,43
2023-05-03T09:58:00.433Z,43
2023-05-03T09:59:00.359Z,43
2023-05-03T10:00:03.441Z,43
2023-05-03T10:01:00.441Z,44
2023-05-03T10:02:00.731Z,44
2023-05-03T10:03:00.446Z,43
2023-05-03T10:04:00.540Z,43
2023-05-03T10:05:03.651Z,44
2023-05-03T10:06:00.503Z,44
2023-05-03T10:07:00.412Z,44
2023-05-03T10:08:00.497Z,43
2023-05-03T10:09:00.452Z,43
2023-05-03T10:10:03.252Z,43
2023-05-03T10:11:00.442Z,45
2023-05-03T10:12:00.551Z,45
2023-05-03T10:13:00.467Z,43
2023-05-03T10:14:00.578Z,43
2023-05-03T10:15:03.312Z,43
2023-05-03T10:16:00.634Z,43
2023-05-03T10:17:00.493Z,43
2023-05-03T10:18:00.601Z,42
2023-05-03T10:19:00.492Z,42
2023-05-03T10:20:03.592Z,42
2023-05-03T10:21:00.546Z,43
2023-05-03T10:22:00.614Z,43
2023-05-03T10:23:00.525Z,43
2023-05-03T10:24:00.610Z,43
2023-05-03T10:25:03.639Z,43
2023-05-03T10:26:00.653Z,42
2023-05-03T10:27:00.591Z,42
2023-05-03T10:28:00.703Z,41
2023-05-03T10:29:01.395Z,41
2023-05-03T10:30:04.021Z,41
2023-05-03T10:31:00.615Z,43
2023-05-03T10:32:00.690Z,43
2023-05-03T10:33:00.735Z,42
2023-05-03T10:34:00.739Z,42
2023-05-03T10:35:03.638Z,42
2023-05-03T10:36:00.732Z,41
2023-05-03T10:37:00.656Z,41
2023-05-03T10:38:00.740Z,42
2023-05-03T10:39:00.668Z,42
2023-05-03T10:40:03.864Z,42
2023-05-03T10:41:00.682Z,42
2023-05-03T10:42:00.768Z,42
2023-05-03T10:43:00.694Z,42
2023-05-03T10:44:00.767Z,42
2023-05-03T10:45:03.305Z,42
2023-05-03T10:46:00.844Z,40
2023-05-03T10:47:00.709Z,40
2023-05-03T10:48:00.851Z,40
2023-05-03T10:49:00.733Z,40
2023-05-03T10:50:05.353Z,40
2023-05-03T10:51:00.784Z,41
2023-05-03T10:52:00.860Z,41
2023-05-03T10:53:00.764Z,41
2023-05-03T10:54:00.876Z,42
2023-05-03T10:55:03.779Z,42
2023-05-03T10:56:00.853Z,42
2023-05-03T10:57:00.797Z,42
2023-05-03T10:58:00.938Z,42
2023-05-03T10:59:00.820Z,41
2023-05-03T11:00:04.077Z,41
2023-05-03T11:01:00.841Z,41
2023-05-03T11:02:01.155Z,41
2023-05-03T11:03:00.899Z,41
2023-05-03T11:04:01.066Z,40
2023-05-03T11:05:03.481Z,40
2023-05-03T11:06:00.938Z,40
2023-05-03T11:07:00.868Z,40
2023-05-03T11:08:00.940Z,40
2023-05-03T11:09:00.895Z,40
2023-05-03T11:10:03.954Z,40
2023-05-03T11:11:00.923Z,39
2023-05-03T11:12:00.974Z,39
2023-05-03T11:13:00.920Z,39
2023-05-03T11:14:01.129Z,39
2023-05-03T11:15:03.647Z,39
2023-05-03T11:16:01.045Z,39
2023-05-03T11:17:01.005Z,39
2023-05-03T11:18:01.084Z,39
2023-05-03T11:19:00.938Z,38
2023-05-03T11:20:03.800Z,38
2023-05-03T11:21:00.969Z,38
2023-05-03T11:22:02.102Z,39
2023-05-03T11:23:00.991Z,39
2023-05-03T11:24:01.059Z,39
2023-05-03T11:25:03.563Z,39
2023-05-03T11:26:01.054Z,39
2023-05-03T11:27:01.052Z,40
2023-05-03T11:28:01.094Z,40
2023-05-03T11:29:01.005Z,39
2023-05-03T11:30:04.538Z,39
2023-05-03T11:31:01.121Z,39
2023-05-03T11:32:01.142Z,38
2023-05-03T11:33:01.116Z,38
2023-05-03T11:34:01.129Z,38
2023-05-03T11:35:03.715Z,38
2023-05-03T11:36:01.124Z,38
2023-05-03T11:37:01.076Z,37
2023-05-03T11:38:01.114Z,37
2023-05-03T11:39:01.084Z,37
2023-05-03T11:40:04.185Z,37
2023-05-03T11:41:01.075Z,37
2023-05-03T11:42:01.286Z,36
2023-05-03T11:43:01.077Z,36
2023-05-03T11:44:15.451Z,36
2023-05-03T11:45:05.232Z,36
2023-05-03T11:46:01.270Z,37
2023-05-03T11:47:01.341Z,37
2023-05-03T11:48:01.327Z,37
2023-05-03T11:49:01.139Z,38
2023-05-03T11:50:03.783Z,38
2023-05-03T11:51:01.144Z,38
2023-05-03T11:52:01.250Z,37
2023-05-03T11:53:01.134Z,37
2023-05-03T11:54:06.935Z,37
2023-05-03T11:55:04.043Z,37
2023-05-03T11:56:01.210Z,37
2023-05-03T11:57:01.229Z,37
2023-05-03T11:58:01.413Z,37
2023-05-03T11:59:01.173Z,37
2023-05-03T12:00:04.725Z,37
2023-05-03T12:01:01.192Z,37
2023-05-03T12:02:01.354Z,36
2023-05-03T12:03:01.383Z,36
2023-05-03T12:04:01.975Z,36
2023-05-03T12:05:04.316Z,36
2023-05-03T12:06:01.848Z,36
2023-05-03T12:07:00.821Z,36
2023-05-03T12:08:01.549Z,36
2023-05-03T12:09:00.349Z,36
2023-05-03T12:11:02.865Z,36
2023-05-03T12:12:02.723Z,36
2023-05-03T12:13:01.184Z,36
2023-05-03T12:14:00.429Z,36
2023-05-03T12:15:04.122Z,36
2023-05-03T12:16:10.729Z,36
2023-05-03T12:17:00.684Z,36
2023-05-03T12:18:00.972Z,36
2023-05-03T12:19:01.890Z,36
2023-05-03T12:22:22.528Z,36
2023-05-03T12:23:03.498Z,36
2023-05-03T12:24:01.698Z,36
2023-05-03T12:25:04.497Z,36
2023-05-03T12:26:01.266Z,36
2023-05-03T12:27:02.273Z,36
2023-05-03T12:29:01.943Z,36
2023-05-03T12:30:03.749Z,36
2023-05-03T12:31:00.480Z,36
2023-05-03T12:32:00.440Z,36
2023-05-03T12:33:00.456Z,36
2023-05-03T12:34:30.871Z,36
2023-05-03T12:35:03.336Z,36
2023-05-03T12:36:03.993Z,36
2023-05-03T12:37:02.778Z,36
2023-05-03T12:38:02.821Z,36
2023-05-03T12:39:02.099Z,36
2023-05-03T12:41:00.451Z,36
2023-05-03T12:43:00.421Z,36
2023-05-03T12:44:00.700Z,36
2023-05-03T12:45:04.789Z,36
2023-05-03T12:46:28.526Z,36
2023-05-03T12:47:01.233Z,36
2023-05-03T12:48:00.957Z,36
2023-05-03T12:49:00.867Z,36
2023-05-03T12:50:06.326Z,36
2023-05-03T12:51:17.585Z,36
2023-05-03T12:52:11.314Z,36
2023-05-03T12:53:02.598Z,36
2023-05-03T12:54:02.216Z,36
2023-05-03T12:55:04.312Z,36
2023-05-03T12:56:00.730Z,36
2023-05-03T12:58:32.044Z,36
2023-05-03T13:00:04.266Z,36
2023-05-03T13:04:26.922Z,36
2023-05-03T13:05:09.754Z,36
2023-05-03T13:06:01.224Z,36
2023-05-03T13:07:01.276Z,36
2023-05-03T13:08:07.537Z,36
2023-05-03T13:09:03.232Z,36
2023-05-03T13:11:00.705Z,36
2023-05-03T13:12:00.805Z,36
2023-05-03T13:13:00.598Z,36
2023-05-03T13:14:00.650Z,36
2023-05-03T13:15:03.690Z,36
2023-05-03T13:16:00.811Z,36
2023-05-03T13:17:00.595Z,36
2023-05-03T13:18:00.707Z,36
2023-05-03T13:19:00.615Z,36
2023-05-03T13:20:03.702Z,36
2023-05-03T13:21:00.635Z,36
2023-05-03T13:22:00.735Z,36
2023-05-03T13:23:00.630Z,36
2023-05-03T13:24:00.737Z,36
2023-05-03T13:25:03.631Z,36
2023-05-03T13:26:00.714Z,36
2023-05-03T13:27:00.666Z,36
2023-05-03T13:28:00.754Z,36
2023-05-03T13:29:00.653Z,36
2023-05-03T13:30:05.228Z,36
2023-05-03T13:31:00.675Z,36
2023-05-03T13:32:00.812Z,36
2023-05-03T13:33:00.779Z,36
2023-05-03T13:34:00.788Z,36
2023-05-03T13:35:04.253Z,36
2023-05-03T13:36:00.790Z,36
2023-05-03T13:37:00.698Z,36
2023-05-03T13:38:00.803Z,36
2023-05-03T13:39:00.711Z,36
2023-05-03T13:40:05.578Z,36
2023-05-03T13:41:00.722Z,36
2023-05-03T13:42:00.817Z,36
2023-05-03T13:43:00.732Z,36
2023-05-03T13:44:00.857Z,36
2023-05-03T13:45:03.237Z,36
2023-05-03T13:46:00.885Z,36
2023-05-03T13:47:00.762Z,36
2023-05-03T13:48:18.135Z,36
2023-05-03T13:49:00.794Z,36
2023-05-03T13:50:04.563Z,36
2023-05-03T13:51:00.823Z,36
2023-05-03T13:52:01.539Z,36
2023-05-03T13:53:00.810Z,36
2023-05-03T13:54:00.922Z,36
2023-05-03T13:55:03.235Z,36
2023-05-03T13:56:00.901Z,36
2023-05-03T13:57:00.831Z,36
2023-05-03T13:58:00.938Z,36
2023-05-03T13:59:00.830Z,36
2023-05-03T14:00:04.061Z,36
2023-05-03T14:01:00.960Z,36
2023-05-03T14:02:01.070Z,36
2023-05-03T14:03:01.078Z,36
2023-05-03T14:04:01.201Z,36
2023-05-03T14:05:03.425Z,36
2023-05-03T14:06:00.975Z,36
2023-05-03T14:07:00.876Z,36
2023-05-03T14:08:00.948Z,36
2023-05-03T14:09:00.924Z,36
2023-05-03T14:10:04.687Z,36
2023-05-03T14:11:00.900Z,36
2023-05-03T14:12:01.008Z,36
2023-05-03T14:13:00.933Z,36
2023-05-03T14:14:01.048Z,36
2023-05-03T14:15:03.646Z,36
2023-05-03T14:16:01.113Z,36
2023-05-03T14:17:01.033Z,36
2023-05-03T14:18:04.614Z,36
2023-05-03T14:19:00.958Z,36
2023-05-03T14:20:04.489Z,36
2023-05-03T14:21:00.963Z,36
2023-05-03T14:22:01.086Z,36
2023-05-03T14:23:00.985Z,36
2023-05-03T14:24:01.092Z,36
2023-05-03T14:25:03.416Z,36
2023-05-03T14:26:01.097Z,36
2023-05-03T14:27:00.992Z,36
2023-05-03T14:28:01.116Z,36
2023-05-03T14:29:00.992Z,36
2023-05-03T14:30:05.305Z,36
2023-05-03T14:31:01.072Z,36
2023-05-03T14:32:01.142Z,36
2023-05-03T14:33:01.115Z,36
2023-05-03T14:34:01.194Z,36
2023-05-03T14:35:03.444Z,36
2023-05-03T14:36:01.157Z,36
2023-05-03T14:37:01.068Z,36
2023-05-03T14:38:01.153Z,36